Hlavní strana
METAR-TAF:

METAR-TAF

Letiště :

Grafenwöhr, Německo

zeměpisná šířka: 49-42N, zeměpisná délka: 011-57E, výška: 415 m

Aktuální stav počasí

Zpráva byla vytvořena před 52 minutami, v 00:56 UTC
Bezvětří
Teplota 16°C
Vlhkost vzduchu 100%
Tlak 1022 hPa
Viditelnost: 8000 m
Jasno
kouřmo

METAR: ETIC 190056Z AUTO 00000KT 8000 BR CLR 16/16 A3017 RMK AO2 SLP202 T01600160 TSNO $

Čas: 03:48 (01:48 UTC)

Předpověď počasí

Zpráva byla vytvořena před 3 hodinami a 49 minutami, v 21:59 UTC
Předpověď platná od 18 v 22 UTC do 20 v 04 UTC
vítr z různých směrů 6 kt
Viditelnost 10 km a více
Polojasno ve výšce 8000 ft
Změna
od 18 v 23 UTC do 18 v 24 UTC
vítr z různých směrů 6 kt
Viditelnost: 8000 m
Skoro jasno ve výšce 6000 ft
kouřmo
Změna
od 19 v 06 UTC do 19 v 07 UTC
Západní vítr 6 kt
Viditelnost 10 km a více
Skoro jasno ve výšce 5000 ft

TAF: ETIC 182159Z 1822/2004 VRB06KT 9999 SCT080 QNH3010INS BECMG 1823/1824 VRB06KT 8000 BR FEW060 QNH3010INS BECMG 1906/1907 28006KT 9999 NSW FEW050 QNH3007INS TX27/1912Z TN15/1904Z

Stav a předpovědi počasí z více než 4 000 letišť (zprávy METAR a TAF).

Červené a žluté tečky na mapě představují dostupné meteorologické stanice.

Když kurzor umístíte na tečku, zobrazí se název stanice.

Pak kliknutím zobrazíte stav a předpověď počasí.

Chcete-li změnit mapu, kliknutím na zelené tlačítko se znaménkem +mapu přiblížíte, kliknutím na zelené tlačítko se znaménkem – mapu oddálíte a kliknutím na zelené šipky přejdete na sousední mapy.


METAR-TAF: